Tiempo atmosférico en la estación meteorológica de Córdoba Aeropuerto, Córdoba (90 m.)



Fecha
DESCASC
Temp. máxima en grados centígrados (hora)
DESCASC
Temp. mínima en grados centígrados (hora)
DESCASC
Temp. media en grados centígrados
DESCASC
Racha de viento máxima en m/sg (hora)
DESCASC
Velocidad máxima media en intervalos de 10 minutos(hora)
DESCASC
Precipitaciones diarias en mm
DESCASC
Precipitaciones de 00:00 a 06:00 en mm
DESCASC
Precipitaciones de 06:00 a 12:00 en mm
DESCASC
Precipitaciones de 12:00 a 18:00 en mm
DESCASC
Precipitaciones de 18:00 a 24:00 en mm
DESCASC
23-06-2019 35.3 (17:30) 17.5 (07:00) 26.4 10.83 (16:30) 6.11 (16:30) 0 0 0 0 0
22-06-2019 35.8 (17:20) 15.2 (07:10) 25.5 8.33 (23:10) 5 (18:30) 0 0 0 0 0
21-06-2019 33.4 (18:30) 15.2 (07:00) 24.3 10.28 (17:40) 5 (17:20) 0 0 0 0 0
20-06-2019 30.5 (17:30) 18.3 (00:00) 24.4 11.67 (17:30) 6.67 (21:00) 0 0 0 0 0
19-06-2019 31.6 (18:20) 18.6 (00:00) 25.1 11.39 (22:20) 7.5 (22:20) 0 0 0 0 0
18-06-2019 30.5 (17:10) 15.1 (00:00) 22.8 11.67 (20:00) 7.5 (20:10) 0 0 0 0 0
17-06-2019 33.3 (16:50) 14.1 (00:00) 23.7 9.17 (17:50) 5.83 (18:20) 0 0 0 0 0
16-06-2019 31.8 (17:50) 12.8 (00:00) 22.3 -- (--) -- (--) 0 0 0 0 0
15-06-2019 31 (18:30) 11 (00:00) 21 7.22 (00:10) 4.72 (00:10) 0 0 0 0 0
14-06-2019 27.1 (19:00) 16.8 (00:00) 21.9 13.33 (15:00) 8.89 (20:00) 0 0 0 0 0
13-06-2019 30.8 (17:30) 15.7 (00:00) 23.2 10.28 (17:30) 5.83 (01:10) 0 0 0 0 0
12-06-2019 31.3 (18:10) 11.8 (00:00) 21.5 7.78 (16:40) 5.56 (23:20) 0 0 0 0 0
11-06-2019 31.4 (18:00) 12.6 (00:00) 22 11.39 (15:30) 6.67 (15:50) 0 0 0 0 0
10-06-2019 31 (17:00) 12.2 (00:00) 21.6 12.78 (20:20) 8.61 (20:10) 0 0 0 0 0
09-06-2019 30.8 (18:00) 16.9 (00:00) 23.8 12.5 (20:40) 7.78 (20:40) 0 0 0 0 0
08-06-2019 32.9 (16:10) 11 (00:00) 22 10.28 (21:40) 7.22 (21:10) 0 0 0 0 0
07-06-2019 28.9 (20:00) 16.3 (00:00) 22.6 10.28 (22:50) 6.67 (23:00) 0 0 0 0 0
06-06-2019 29 (17:30) 11 (00:00) 20 11.67 (19:00) 7.78 (18:10) 0 0 0 0 0
05-06-2019 27.3 (16:00) 14.6 (00:00) 20.9 9.72 (16:20) 6.39 (03:00) 0 0 0 0 0
04-06-2019 32.8 (17:20) 14.4 (00:00) 23.6 12.78 (19:20) 8.33 (19:20) 0 0 0 0 0
03-06-2019 37.3 (17:50) 16.5 (00:00) 26.9 8.33 (18:40) 5.83 (20:10) 0 0 0 0 0
02-06-2019 37.3 (18:30) 14.8 (00:00) 26 7.78 (19:10) 4.72 (19:40) 0 0 0 0 0
01-06-2019 36.9 (18:40) 14 (00:00) 25.5 -- (--) -- (--) 0 0 0 0 0
31-05-2019 36.5 (17:40) 13.6 (00:00) 25.1 9.17 (15:30) 6.11 (20:00) 0 0 0 0 0
30-05-2019 35.1 (18:00) 14.9 (00:00) 25 10.28 (19:10) 7.22 (19:20) 0 0 0 0 0
29-05-2019 34.5 (17:30) 18.6 (00:00) 26.6 11.67 (10:00) 8.33 (10:00) 0 0 0 0 0
28-05-2019 37.1 (18:20) 16.2 (00:00) 26.6 9.72 (21:30) 5.56 (21:40) 0 0 0 0 0
27-05-2019 35.5 (18:00) 13.7 (00:00) 24.6 10.28 (16:20) 6.39 (21:50) 0 0 0 0 0

Gráficas

Temp. máximas Temp. mínimas Temp. medias Precipitaciones Rachas de viento máximas Velocidades máximas media en intervalos de 10 minutos

Datos horarios

Fecha y hora oficial Temperatura (ºC) Velocidad del viento (km/h) Dirección del viento Racha (km/h) Dirección de racha Precipitación (mm) Presión (hPa) Tendencia (hPa) Humedad (%)
2019-06-25 23:00:00 28 12 Sudoeste 26 Oeste 0 1003.2 1.8 31
2019-06-25 22:00:00 29.8 15 Oeste 32 Oeste 0 1002.2 0.9 29
2019-06-25 21:00:00 32 20 Sudoeste 30 Sudoeste 0 1001.6 0 27
2019-06-25 20:00:00 33.8 18 Sudoeste 28 Oeste 0 1001.4 -0.7 27
2019-06-25 19:00:00 34.4 16 Sudoeste 28 Oeste 0 1001.3 -1.2 25
2019-06-25 18:00:00 34.9 16 Oeste 30 Oeste 0 1001.6 -1.6 25
2019-06-25 17:00:00 34.3 15 Oeste 30 Oeste 0 1002.1 -2 26
2019-06-25 16:00:00 33.7 14 Sudoeste 28 Sudoeste 0 1002.5 -2.3 28
2019-06-25 15:00:00 32.4 12 Sudoeste 32 Sudoeste 0 1003.2 -2.1 31
2019-06-25 14:00:00 30.8 8 Oeste 18 Oeste 0 1004.1 -1.5 37
2019-06-25 13:00:00 29.1 8 Oeste 17 Oeste 0 1004.8 -1 39
2019-06-25 12:00:00 26.8 6 Oeste 13 Sudoeste 0 1005.3 -0.3 51
2019-06-25 11:00:00 24.7 6 Norte 13 Sudoeste 0 1005.6 0.4 57
2019-06-25 10:00:00 22.5 3 Oeste 9 Oeste 0 1005.8 1 66
2019-06-25 09:00:00 20.6 6 Sudoeste 9 Oeste 0 1005.6 1.4 73
2019-06-25 08:00:00 18.3 5 Sudoeste 8 Sudoeste 0 1005.2 1.1 83
2019-06-25 07:00:00 18.1 3 Oeste 11 Oeste 0 1004.8 0.8 81
2019-06-25 06:00:00 18.3 5 Oeste 13 Sur 0 1004.2 -0.1 77
2019-06-25 05:00:00 19.2 11 Sur 17 Sur 0 1004.1 -0.2 78
2019-06-25 04:00:00 20.1 9 Oeste 17 Sudoeste 0 1004 -0.1 77
2019-06-25 03:00:00 21.2 11 Sudoeste 13 Sudoeste 0 1004.3 0.5 75
2019-06-25 02:00:00 22.3 5 Oeste 17 Sudoeste 0 1004.3 1.3 69
2019-06-25 01:00:00 23.5 8 Oeste 21 Sudoeste 0 1004.1 2 62
2019-06-25 00:00:00 24.9 12 Sudoeste 22 Sudoeste 0 1003.8 2 53
2019-06-24 23:00:00 26.5 11 Sudoeste 21 Sudoeste 0 1003 1.5 46
2019-06-24 22:00:00 28.1 10 Oeste 26 Sudoeste 0 1002.1 0.7 43
2019-06-24 21:00:00 30.4 17 Sudoeste 30 Oeste 0 1001.8 0.4 35
2019-06-24 20:00:00 31.9 18 Oeste 33 Sudoeste 0 1001.5 -0.1 27
2019-06-24 19:00:00 32.6 23 Oeste 33 Oeste 0 1001.4 -0.4 24
2019-06-24 18:00:00 31.4 15 Oeste 30 Oeste 0 1001.4 -0.8 29
2019-06-24 17:00:00 31.5 14 Oeste 26 Sudoeste 0 1001.6 -1.3 30
2019-06-24 16:00:00 31.4 13 Oeste 30 Oeste 0 1001.8 -1.5 30
2019-06-24 15:00:00 30.9 12 Oeste 26 Oeste 0 1002.2 -1.5 30
2019-06-24 14:00:00 28.9 13 Oeste 22 Sudoeste 0 1002.9 -1 37
2019-06-24 13:00:00 28.1 13 Sudoeste 26 Sudoeste 0 1003.3 -0.6 40
2019-06-24 12:00:00 26 12 Sudoeste 21 Oeste 0 1003.7 0.4 45
2019-06-24 11:00:00 22.9 8 Sudoeste 15 Sudoeste 0 1003.9 0.7 51
2019-06-24 10:00:00 21 8 Sudoeste 15 Sudoeste 0 1003.9 1.1 60
2019-06-24 09:00:00 20.5 8 Sur 11 Sur 0 1003.3 0.7 56
2019-06-24 08:00:00 18.8 8 Sudoeste 11 Sudoeste 0 1003.2 0.6 65
2019-06-24 07:00:00 18.7 9 Oeste 11 Oeste 0 1002.8 0.3 66
2019-06-24 06:00:00 19.8 5 Sudoeste 13 Oeste 0 1002.6 0 59
2019-06-24 05:00:00 20.5 7 Oeste 13 Sudoeste 0 1002.6 0.1 58
2019-06-24 04:00:00 21.4 8 Sudoeste 15 Sudoeste 0 1002.5 0.3 60
2019-06-24 03:00:00 22.7 10 Oeste 22 Oeste 0 1002.6 0.6 56
2019-06-24 02:00:00 24.1 12 Oeste 22 Sudoeste 0 1002.5 1.4 53
2019-06-24 01:00:00 25 14 Sudoeste 28 Sudoeste 0 1002.2 2.3 54
2019-06-24 00:00:00 26.3 14 Oeste 26 Sudoeste 0 1002 2.6 51
2019-06-23 23:00:00 28 15 Oeste 26 Oeste 0 1001.1 2.1 41
2019-06-23 22:00:00 29 10 Oeste 21 Oeste 0 999.9 0.9 36
2019-06-23 21:00:00 30.8 14 Sudoeste 28 Sudoeste 0 999.4 0 30
2019-06-23 20:00:00 32.4 18 Oeste 33 Oeste 0 999 -0.7 27
2019-06-23 19:00:00 34 18 Sudoeste 30 Oeste 0 999 -1.2 23
2019-06-23 18:00:00 34.2 19 Oeste 30 Oeste 0 999.4 -1.5 19
2019-06-23 17:00:00 34.7 19 Oeste 39 Oeste 0 999.7 -1.8 18
2019-06-23 16:00:00 34.1 15 Oeste 30 Sudoeste 0 1000.2 -1.9 23
2019-06-23 15:00:00 33.3 14 Oeste 26 Sudoeste 0 1000.9 -1.6 24
2019-06-23 14:00:00 32.4 12 Sudoeste 24 Sudoeste 0 1001.5 -1.4 26
2019-06-23 13:00:00 30.4 9 Sudoeste 21 Oeste 0 1002.1 -1.1 27
2019-06-23 12:00:00 28.4 7 Sudoeste 15 Oeste 0 1002.5 -0.8 25
2019-06-23 11:00:00 27 5 Sur 11 Sur 0 1002.9 -0.5 30
2019-06-23 10:00:00 25.3 4 Sur 9 Sur 0 1003.2 -0.1 35
2019-06-23 09:00:00 22.3 5 Este 8 Este 0 1003.3 0.6 47
2019-06-23 08:00:00 18.3 3 Sudoeste 5 Sudoeste 0 1003.4 0.7 60
2019-06-23 07:00:00 17.6 0 Calma 8 Norte 0 1003.3 0.6 61
2019-06-23 06:00:00 18 3 Noroeste 9 Sur 0 1002.7 -0.5 57
2019-06-23 05:00:00 19 9 Sur 11 Sur 0 1002.7 -0.6 55
2019-06-23 04:00:00 20.3 2 Oeste 11 Oeste 0 1002.7 -0.2 49
2019-06-23 03:00:00 21.7 9 Oeste 17 Oeste 0 1003.2 1 46
2019-06-23 02:00:00 22.8 11 Oeste 21 Oeste 0 1003.3 1.9 43
2019-06-23 01:00:00 24.2 13 Sudoeste 24 Sudoeste 0 1002.9 2.7 41
2019-06-23 00:00:00 25.9 14 Sudoeste 30 Sudoeste 0 1002.2 2.3 40
2019-06-22 23:00:00 27.7 14 Sudoeste 28 Sudoeste 0 1001.4 1.6 33
2019-06-22 22:00:00 29.2 11 Sudoeste 17 Oeste 0 1000.2 0.4 27
2019-06-22 21:00:00 33.2 11 Oeste 26 Oeste 0 999.9 -0.3 19
2019-06-22 20:00:00 34.3 17 Oeste 26 Sudoeste 0 999.8 -0.9 18
2019-06-22 19:00:00 35.1 13 Oeste 26 Oeste 0 999.8 -1.7 17
2019-06-22 18:00:00 35.2 15 Oeste 24 Sudoeste 0 1000.2 -1.9 18
2019-06-22 17:00:00 35.2 9 Noroeste 24 Oeste 0 1000.7 -2.3 18
2019-06-22 16:00:00 34.4 8 Oeste 24 Noroeste 0 1001.5 -2.4 18
2019-06-22 15:00:00 33.9 10 Sudoeste 22 Oeste 0 1002.1 -2.1 20
2019-06-22 14:00:00 32.4 7 Oeste 21 Sudoeste 0 1003 -1.7 23
2019-06-22 13:00:00 30.9 6 Sudeste 13 Sudoeste 0 1003.9 -1 27
2019-06-22 12:00:00 28.6 4 Oeste 11 Oeste 0 1004.2 -0.7 31
2019-06-22 11:00:00 26.2 4 Este 11 Este 0 1004.7 0.2 37
2019-06-22 10:00:00 24.3 3 Sudeste 9 Este 0 1004.9 1.1 45
2019-06-22 09:00:00 20.9 2 Sur 8 Sur 0 1004.9 1.5 52
2019-06-22 08:00:00 17 0 Calma 5 Nordeste 0 1004.5 1.1 68
2019-06-22 07:00:00 15.6 5 Sur 5 Sudoeste 0 1003.8 0.2 71
2019-06-22 06:00:00 16.3 0 Calma -- -- 0 1003.4 -0.4 70
2019-06-22 05:00:00 17 6 Sudoeste -- -- 0 1003.4 -0.4 72
2019-06-22 04:00:00 17.8 7 Sudoeste 9 Sudoeste 0 1003.6 -0.2 70
2019-06-22 03:00:00 18.9 6 Oeste 11 Sudoeste 0 1003.8 0.3 62
2019-06-22 02:00:00 21.1 10 Sudoeste 15 Oeste 0 1003.8 1 55
2019-06-22 01:00:00 22.4 10 Sudoeste 17 Oeste 0 1003.8 1.9 49
2019-06-22 00:00:00 24.5 10 Sudoeste 18 Oeste 0 1003.5 1.9 42
2019-06-21 23:00:00 24.8 10 Sudoeste 21 Sudoeste 0 1002.8 1.6 33
2019-06-21 22:00:00 27.8 4 Oeste 13 Oeste 0 1001.9 0.7 23
2019-06-21 21:00:00 31.2 9 Oeste 24 Sudoeste 0 1001.6 0.1 20
2019-06-21 20:00:00 32.3 16 Sudoeste 24 Oeste 0 1001.2 -0.7 19
2019-06-21 19:00:00 33.1 15 Sudoeste 28 Sudoeste 0 1001.2 -1.3 18
2019-06-21 18:00:00 33 17 Sudoeste 37 Oeste 0 1001.5 -1.7 17
2019-06-21 17:00:00 32.6 16 Sudoeste 26 Oeste 0 1001.9 -2.2 17
2019-06-21 16:00:00 31.5 15 Sudoeste 30 Sudoeste 0 1002.5 -2.4 22
2019-06-21 15:00:00 30.1 14 Sudoeste 33 Sudoeste 0 1003.2 -2 26
2019-06-21 14:00:00 28.7 15 Sudoeste 28 Sudoeste 0 1004.1 -1.3 29
2019-06-21 13:00:00 27 16 Sudoeste 28 Sudoeste 0 1004.9 -0.6 34
2019-06-21 12:00:00 25.7 12 Sudoeste 22 Oeste 0 1005.2 -0.2 37
2019-06-21 11:00:00 23.8 8 Sudoeste 13 Sudoeste 0 1005.4 0.2 42
2019-06-21 10:00:00 21.9 4 Sudoeste 11 Sudoeste 0 1005.5 0.8 54
2019-06-21 09:00:00 19.5 4 Oeste 8 Sudoeste 0 1005.4 1 63
2019-06-21 08:00:00 16.9 6 Sur 9 Sudoeste 0 1005.2 0.9 74
2019-06-21 07:00:00 15.3 5 Sudoeste -- -- 0 1004.7 0.4 77
2019-06-21 06:00:00 15.9 0 Calma 5 Sudeste 0 1004.4 0.3 74
2019-06-21 05:00:00 16.5 0 Calma 9 Oeste 0 1004.3 0.3 72
2019-06-21 04:00:00 17.6 3 Oeste 13 Sudoeste 0 1004.3 0.2 69
2019-06-21 03:00:00 18.9 10 Sudoeste 17 Sudoeste 0 1004.1 0.3 64
2019-06-21 02:00:00 20.1 11 Sudoeste 18 Oeste 0 1004 1 60
2019-06-21 01:00:00 20.8 12 Oeste 18 Sudoeste 0 1004.1 1.8 55
2019-06-21 00:00:00 21.9 14 Sudoeste 24 Oeste 0 1003.8 2.3 53
2019-06-20 23:00:00 23.2 14 Oeste 30 Oeste 0 1003 1.9 50
2019-06-20 22:00:00 24.9 20 Oeste 37 Oeste 0 1002.3 0.9 47
2019-06-20 21:00:00 28.1 24 Oeste 35 Oeste 0 1001.5 -0.4 37
2019-06-20 20:00:00 29.8 18 Oeste 30 Oeste 0 1001.1 -0.9 30
2019-06-20 19:00:00 30.1 22 Sudoeste 32 Sudoeste 0 1001.4 -1 29
2019-06-20 18:00:00 29.8 23 Sudoeste 42 Sudoeste 0 1001.9 -1 28
2019-06-20 17:00:00 30.3 21 Sudoeste 37 Sudoeste 0 1002 -1.4 29
2019-06-20 16:00:00 29.8 21 Sudoeste 37 Oeste 0 1002.4 -1.6 32
2019-06-20 15:00:00 29.7 20 Oeste 33 Oeste 0 1002.9 -1.3 35
2019-06-20 14:00:00 28.1 12 Sudoeste 28 Sudoeste 0 1003.4 -1 42
2019-06-20 13:00:00 27 10 Sudoeste 21 Sudoeste 0 1004 -0.6 45
2019-06-20 12:00:00 25.2 9 Sur 18 Sudoeste 0 1004.2 -0.5 52
2019-06-20 11:00:00 23.4 8 Sudoeste 17 Sudoeste 0 1004.4 -0.1 60
2019-06-20 10:00:00 21.7 8 Sur 15 Sur 0 1004.6 0.1 66
2019-06-20 09:00:00 19.7 8 Sudoeste 13 Sur 0 1004.7 0.3 75
2019-06-20 08:00:00 18.9 9 Sudoeste 15 Oeste 0 1004.5 0.2 80
2019-06-20 07:00:00 18.8 9 Oeste 15 Sudoeste 0 1004.5 0.1 80
2019-06-20 06:00:00 18.8 9 Sudoeste 13 Sudoeste 0 1004.4 -0.4 80
2019-06-20 05:00:00 18.9 9 Sudoeste 13 Sudoeste 0 1004.3 -0.5 80
2019-06-20 04:00:00 18.4 6 Sudoeste 15 Sudoeste 0 1004.4 -0.3 80
2019-06-20 03:00:00 19.2 10 Sudoeste 17 Sudoeste 0 1004.8 0.1 76
2019-06-20 02:00:00 20.1 11 Sudoeste 21 Sudoeste 0 1004.8 1 71
2019-06-20 01:00:00 21.1 14 Oeste 26 Oeste 0 1004.7 2.1 66
2019-06-20 00:00:00 22.5 14 Sudoeste 33 Sudoeste 0 1004.7 2.6 60
2019-06-19 23:00:00 24 24 Sudoeste 41 Sudoeste 0 1003.8 1.8 55
2019-06-19 22:00:00 27.1 21 Sudoeste 32 Sudoeste 0 1002.6 0.6 42
2019-06-19 21:00:00 29.8 15 Oeste 28 Sudoeste 0 1002.1 -0.5 31
2019-06-19 20:00:00 30.9 15 Oeste 30 Sudoeste 0 1002 -1.3 28
2019-06-19 19:00:00 31.4 17 Sudoeste 28 Oeste 0 1002 -2.1 26
2019-06-19 18:00:00 31.2 17 Oeste 30 Oeste 0 1002.6 -2.3 27
2019-06-19 17:00:00 30.6 17 Sudoeste 28 Oeste 0 1003.3 -2.5 29
2019-06-19 16:00:00 29.7 15 Sudoeste 30 Sudoeste 0 1004.1 -2.5 31
2019-06-19 15:00:00 28.4 10 Oeste 26 Sudoeste 0 1004.9 -1.9 34
2019-06-19 14:00:00 26.5 8 Sudoeste 17 Este 0 1005.8 -1.1 45
2019-06-19 13:00:00 25.1 5 Sudeste 17 Oeste 0 1006.6 -0.4 52
2019-06-19 12:00:00 22.5 9 Sudoeste 17 Sudoeste 0 1006.8 0.1 62
2019-06-19 11:00:00 20.8 10 Sudoeste 17 Sudoeste 0 1006.9 0.5 70
2019-06-19 10:00:00 19.9 10 Sudoeste 17 Oeste 0 1007 0.9 75
2019-06-19 09:00:00 19 7 Sudoeste 15 Oeste 0 1006.7 0.7 80
2019-06-19 08:00:00 18.9 9 Sudoeste 15 Sudoeste 0 1006.4 0.4 81
2019-06-19 07:00:00 18.9 10 Oeste 18 Sudoeste 0 1006.1 0.5 81
2019-06-19 06:00:00 18.9 10 Sudoeste 18 Sudoeste 0 1006 0.3 81
2019-06-19 05:00:00 18.9 14 Sudoeste 22 Sudoeste 0 1006 0.3 81
2019-06-19 04:00:00 18.9 13 Sudoeste 18 Sudoeste 0 1005.6 -0.1 79
2019-06-19 03:00:00 18.9 11 Sudoeste 18 Sudoeste 0 1005.7 0 76
2019-06-19 02:00:00 20 9 Sudoeste 28 Oeste 0 1005.7 0.6 71
2019-06-19 01:00:00 20.9 18 Oeste 28 Oeste 0 1005.7 1.4 67
2019-06-19 00:00:00 21.8 15 Oeste 32 Oeste 0 1005.7 1.7 64
2019-06-18 23:00:00 23 17 Oeste 30 Sudoeste 0 1005.1 1.4 58
2019-06-18 22:00:00 24.5 18 Oeste 37 Oeste 0 1004.3 1 51
2019-06-18 21:00:00 26.6 26 Oeste 41 Oeste 0 1004 0.4 44
2019-06-18 20:00:00 28.3 24 Oeste 42 Oeste 0 1003.7 -0.1 36
2019-06-18 19:00:00 29.4 23 Oeste 41 Oeste 0 1003.3 -1 31
2019-06-18 18:00:00 29.8 27 Oeste 39 Oeste 0 1003.6 -1.3 27
2019-06-18 17:00:00 30.1 19 Oeste 35 Oeste 0 1003.8 -1.7 21
2019-06-18 16:00:00 29.3 18 Oeste 39 Oeste 0 1004.3 -1.7 25
2019-06-18 15:00:00 28.3 21 Oeste 33 Sudoeste 0 1004.9 -1.4 27
2019-06-18 14:00:00 26.9 17 Oeste 35 Oeste 0 1005.5 -1 37
2019-06-18 13:00:00 24.7 15 Oeste 28 Oeste 0 1006 -0.5 46
2019-06-18 12:00:00 22.3 17 Oeste 33 Oeste 0 1006.3 0.2 52
2019-06-18 11:00:00 19.8 16 Oeste 28 Oeste 0 1006.5 0.9 64
2019-06-18 10:00:00 19 16 Oeste 24 Oeste 0 1006.5 1.4 66
2019-06-18 09:00:00 17.4 14 Oeste 21 Oeste 0 1006.1 1.3 73
2019-06-18 08:00:00 15.1 8 Sudoeste 13 Sudoeste 0 1005.6 1 72
2019-06-18 07:00:00 15.6 9 Sudoeste 13 Sudoeste 0 1005.1 0.6 69
2019-06-18 06:00:00 16.5 8 Oeste 13 Sudoeste 0 1004.8 0.3 63
2019-06-18 05:00:00 17.4 7 Sudoeste 13 Sudoeste 0 1004.6 0 59
2019-06-18 04:00:00 18.9 10 Sudoeste 17 Oeste 0 1004.5 0 57
2019-06-18 03:00:00 20.4 12 Sudoeste 18 Oeste 0 1004.5 0.3 54
2019-06-18 02:00:00 20.8 9 Oeste 15 Oeste 0 1004.6 1.1 52
2019-06-18 01:00:00 21.6 9 Oeste 15 Oeste 0 1004.5 1.7 48
2019-06-18 00:00:00 23.4 9 Oeste 18 Sudoeste 0 1004.2 1.9 43
2019-06-17 23:00:00 25.5 14 Oeste 26 Oeste 0 1003.5 1.4 34
2019-06-17 22:00:00 27.4 19 Sudoeste 30 Oeste 0 1002.8 0.9 27
2019-06-17 21:00:00 30.1 19 Sudoeste 30 Oeste 0 1002.3 0 22
2019-06-17 20:00:00 32.1 18 Oeste 33 Oeste 0 1002.1 -0.8 19
2019-06-17 19:00:00 33 21 Oeste 33 Oeste 0 1001.9 -1.8 16
2019-06-17 18:00:00 33.2 14 Oeste 33 Oeste 0 1002.3 -2.2 15
2019-06-17 17:00:00 33 15 Oeste 32 Sudoeste 0 1002.9 -2.6 16
2019-06-17 16:00:00 32.4 14 Oeste 30 Sudoeste 0 1003.7 -2.7 18
2019-06-17 15:00:00 31 9 Oeste 21 Oeste 0 1004.5 -2.3 22
2019-06-17 14:00:00 29.5 7 Noroeste 17 Sur 0 1005.5 -1.6 25
2019-06-17 13:00:00 27.9 5 Sur 17 Sudoeste 0 1006.4 -1.1 28
2019-06-17 12:00:00 26.3 3 Noroeste 11 Sudoeste 0 1006.8 -0.8 30
2019-06-17 11:00:00 24.1 4 Sudeste 11 Sur 0 1007.1 -0.6 39
2019-06-17 10:00:00 22.3 5 Este 11 Nordeste 0 1007.5 0 46
2019-06-17 09:00:00 19.7 2 Nordeste 8 Sudoeste 0 1007.6 0.5 54
2019-06-17 08:00:00 17 0 Calma 4 Este 0 1007.7 0.6 66
2019-06-17 07:00:00 14.1 3 Norte 4 Norte 0 1007.5 0.3 72
2019-06-17 06:00:00 14.4 6 Sudoeste 11 Sudoeste 0 1007.1 -0.5 70
2019-06-17 05:00:00 15.8 9 Sur 11 Sur 0 1007.1 -0.5 69
2019-06-17 04:00:00 16.6 5 Oeste 13 Oeste 0 1007.2 -0.3 62
2019-06-17 03:00:00 17.8 9 Oeste 15 Sudoeste 0 1007.6 0.5 58
2019-06-17 02:00:00 18.9 7 Sudoeste 13 Oeste 0 1007.6 1.3 52
2019-06-17 01:00:00 20.6 12 Sudoeste 15 Sudoeste 0 1007.5 2.1 49
2019-06-17 00:00:00 22.7 12 Oeste 24 Oeste 0 1007.1 2.2 41
2019-06-16 23:00:00 24 10 Sudoeste 22 Sudoeste 0 1006.3 1.6 36
2019-06-16 22:00:00 26.1 12 Sudoeste 22 Oeste 0 1005.4 0.7 32
2019-06-16 21:00:00 28.9 15 Oeste 32 Oeste 0 1004.9 0 27
2019-06-16 20:00:00 30.7 14 Oeste 32 Oeste 0 1004.7 -0.4 23
2019-06-16 19:00:00 31.5 17 Oeste 30 Oeste 0 1004.7 -0.9 19
2019-06-16 18:00:00 31.6 15 Oeste 26 Oeste 0 1004.9 -1.2 18
2019-06-16 17:00:00 31.4 14 Oeste 24 Sudoeste 0 1005.1 -1.3 18
2019-06-16 16:00:00 29.4 12 Oeste 22 Oeste 0 1005.6 -0.8 24
2019-06-16 15:00:00 28.4 10 Oeste 21 Oeste 0 1006.1 -0.6 27
2019-06-16 14:00:00 27.8 5 Oeste 11 Oeste 0 1006.4 -0.6 26
2019-06-16 13:00:00 27.6 4 Sudeste 9 Este 0 1006.4 -0.5 24
2019-06-16 12:00:00 26 5 Este 15 Este 0 1006.7 0.1 26
2019-06-16 11:00:00 24.2 6 Nordeste 11 Este 0 1007 0.7 30
2019-06-16 10:00:00 21.3 5 Este 11 Este 0 1006.9 0.9 43
2019-06-16 09:00:00 16.6 0 Calma 5 Sudoeste 0 1006.6 1.2 57
2019-06-16 08:00:00 14.3 0 Calma 5 Sudoeste 0 1006.3 0.9 64
2019-06-16 07:00:00 12.9 0 Calma -- -- 0 1006 0.4 66
2019-06-16 06:00:00 13.1 -- -- -- -- 0 1005.4 -0.4 68
2019-06-16 05:00:00 14.6 -- -- -- -- 0 1005.4 -0.7 61
2019-06-16 04:00:00 15.8 -- -- -- -- 0 1005.6 -1.1 59
2019-06-16 03:00:00 17.2 5 Oeste 8 Oeste 0 1005.8 -0.5 54
2019-06-16 02:00:00 18.4 0 Calma 9 Sudoeste 0 1006.1 0.2 48
2019-06-16 01:00:00 20 3 Noroeste 15 Sur 0 1006.7 1.4 44
2019-06-16 00:00:00 21.2 6 Sur 11 Oeste 0 1006.3 1.2 48
2019-06-15 23:00:00 22.7 9 Sudoeste 11 Sudoeste 0 1005.9 1 41
2019-06-15 22:00:00 25.6 7 Sudoeste 11 Sudoeste 0 1005.3 0.5 30
2019-06-15 21:00:00 29.5 8 Sudoeste 15 Sudoeste 0 1005.1 -0.3 21
2019-06-15 20:00:00 30.7 12 Oeste 18 Oeste 0 1004.9 -0.9 18
2019-06-15 19:00:00 30.6 13 Sudoeste 22 Sudoeste 0 1004.8 -2 18
2019-06-15 18:00:00 30.6 12 Sudoeste 22 Sudoeste 0 1005.4 -2.1 18
2019-06-15 17:00:00 29.6 8 Sudoeste 18 Oeste 0 1005.8 -2.4 20
2019-06-15 16:00:00 28.4 9 Sudoeste 21 Oeste 0 1006.8 -1.8 23
2019-06-15 15:00:00 28 10 Sur 22 Sudoeste 0 1007.5 -1.5 24
2019-06-15 14:00:00 26.8 8 Sudeste 18 Sudoeste 0 1008.2 -1.2 26
2019-06-15 13:00:00 25 9 Sudoeste 18 Sur 0 1008.6 -1.1 30
2019-06-15 12:00:00 23.9 7 Nordeste 17 Este 0 1009 -0.8 32
2019-06-15 11:00:00 21.7 6 Este 15 Sudeste 0 1009.4 -0.1 40
2019-06-15 10:00:00 19.6 3 Este 9 Nordeste 0 1009.7 0.5 51
2019-06-15 09:00:00 17.2 3 Sudeste 9 Sur 0 1009.8 1.1 59
2019-06-15 08:00:00 12.8 6 Sur 9 Sur 0 1009.5 0.9 74
2019-06-15 07:00:00 11.2 4 Sudoeste 8 Sudoeste 0 1009.2 0.7 81
2019-06-15 06:00:00 11.8 0 Calma -- -- 0 1008.7 0.1 77
2019-06-15 05:00:00 12.6 3 Sudoeste 4 Sudoeste 0 1008.6 0.1 73
2019-06-15 04:00:00 13.7 3 Sudoeste 11 Sudoeste 0 1008.5 0 69
2019-06-15 03:00:00 15 8 Sudoeste 13 Oeste 0 1008.6 0.6 64
2019-06-15 02:00:00 16.1 11 Oeste 18 Sudoeste 0 1008.5 0.9 60
2019-06-15 01:00:00 17.4 13 Sudoeste 26 Sudoeste 0 1008.5 1.8 54
2019-06-15 00:00:00 18.6 17 Sudoeste 33 Sudoeste 0 1008 2.3 49
2019-06-14 23:00:00 19.9 20 Sudoeste 32 Sudoeste 0 1007.6 2.9 45
2019-06-14 22:00:00 21.2 21 Sudoeste 37 Sudoeste 0 1006.7 2.5 41
2019-06-14 21:00:00 23.4 26 Sudoeste 42 Sudoeste 0 1005.7 1.3 34
2019-06-14 20:00:00 25.3 32 Sudoeste 48 Sudoeste 0 1004.7 0.3 29
2019-06-14 19:00:00 26.9 20 Sudoeste 39 Sudoeste 0 1004.2 -0.6 22
2019-06-14 18:00:00 26.7 20 Sudoeste 37 Sudoeste 0 1004.4 -0.5 23
2019-06-14 17:00:00 26.2 21 Sudoeste 45 Sudoeste 0 1004.4 -0.9 23
2019-06-14 16:00:00 25.3 29 Sudoeste 48 Sudoeste 0 1004.8 -0.6 26
2019-06-14 15:00:00 25.2 28 Sudoeste 48 Sudoeste 0 1004.9 -0.3 28
2019-06-14 14:00:00 24.3 26 Sudoeste 42 Oeste 0 1005.3 0.4 31
2019-06-14 13:00:00 23.3 22 Sudoeste 39 Sudoeste 0 1005.4 0.9 35
2019-06-14 12:00:00 21.9 22 Sudoeste 45 Sudoeste 0 1005.2 1 45
2019-06-14 11:00:00 20.5 21 Sudoeste 35 Sudoeste 0 1004.9 1.5 52
2019-06-14 10:00:00 19.5 20 Oeste 33 Oeste 0 1004.5 1.8 57
2019-06-14 09:00:00 18.4 18 Oeste 39 Oeste 0 1004.2 2.2 65
2019-06-14 08:00:00 17.6 21 Oeste 33 Oeste 0 1003.4 1.6 65
2019-06-14 07:00:00 16.9 12 Oeste 17 Oeste 0 1002.7 1 63
2019-06-14 06:00:00 17.9 9 Sudoeste 17 Oeste 0 1002 0.1 57
2019-06-14 05:00:00 19.5 13 Oeste 22 Oeste 0 1001.8 0.4 52
2019-06-14 04:00:00 19.6 12 Oeste 18 Oeste 0 1001.7 0.5 51
2019-06-14 03:00:00 19.5 8 Oeste 26 Oeste 0 1001.9 1.9 49
2019-06-14 02:00:00 20.4 18 Oeste 37 Sudoeste 0 1001.4 2.3 44
2019-06-14 01:00:00 22.6 17 Sudoeste 37 Sudoeste 0 1001.2 3.1 38
2019-06-14 00:00:00 24 18 Sudoeste 30 Oeste 0 1000 2.4 26
2019-06-13 23:00:00 24.9 17 Sudoeste 28 Oeste 0 999.1 2.1 27
2019-06-13 22:00:00 25.8 13 Sudoeste 22 Sudoeste 0 998.1 1.4 31
2019-06-13 21:00:00 27 17 Oeste 32 Oeste 0 997.6 0.8 30
2019-06-13 20:00:00 28.4 19 Oeste 33 Oeste 0 997 -0.2 31
2019-06-13 19:00:00 29.7 17 Oeste 32 Oeste 0 996.7 -1 29
2019-06-13 18:00:00 30.5 17 Sudoeste 37 Oeste 0 996.8 -1.5 29
2019-06-13 17:00:00 30.4 14 Sudoeste 28 Oeste 0 997.2 -1.6 29
2019-06-13 16:00:00 29.1 7 Sudoeste 26 Oeste 0 997.7 -1.6 31
2019-06-13 15:00:00 28.5 9 Oeste 24 Oeste 0 998.3 -1.7 34
2019-06-13 14:00:00 28.3 11 Sur 22 Oeste 0 998.8 -1.5 33
2019-06-13 13:00:00 26.4 12 Oeste 22 Sudoeste 0 999.3 -1.1 41
2019-06-13 12:00:00 24.4 7 Sudoeste 15 Noroeste 0 1000 -0.3 51
2019-06-13 11:00:00 22.6 7 Oeste 17 Oeste 0 1000.3 0.3 59
2019-06-13 10:00:00 21.3 6 Sudoeste 13 Sudoeste 0 1000.4 0.8 67
2019-06-13 09:00:00 19.6 3 Sur 9 Sur 0 1000.3 0.6 72
2019-06-13 08:00:00 16.9 7 Sur 9 Sur 0 1000 0.2 80
2019-06-13 07:00:00 15.9 4 Sudoeste 8 Sur 0 999.6 -0.3 81
2019-06-13 06:00:00 16.9 4 Sudoeste 13 Oeste 0 999.7 0 79
2019-06-13 05:00:00 17.7 9 Oeste 13 Oeste 0 999.8 0.2 77
2019-06-13 04:00:00 18.7 12 Sudoeste 22 Oeste 0 999.9 0.6 70
2019-06-13 03:00:00 19.6 10 Oeste 18 Sudoeste 0 999.7 0.7 65
2019-06-13 02:00:00 20.6 12 Sudoeste 32 Sudoeste 0 999.6 1.4 59
2019-06-13 01:00:00 21.7 19 Sudoeste 30 Sudoeste 0 999.3 1.7 60
2019-06-13 00:00:00 23.2 13 Sudoeste 28 Sudoeste 0 999 1.8 50
2019-06-12 23:00:00 23.5 11 Sudoeste 18 Sur 0 998.2 1.1 37
2019-06-12 22:00:00 26.1 9 Sudoeste 21 Sur 0 997.6 0.3 28
2019-06-12 21:00:00 29.5 12 Sudoeste 18 Sudoeste 0 997.2 -0.7 23
2019-06-12 20:00:00 30.6 12 Oeste 24 Sudoeste 0 997.1 -1.3 20
2019-06-12 19:00:00 31 10 Noroeste 22 Sur 0 997.3 -1.7 18
2019-06-12 18:00:00 31 8 Oeste 28 Sudoeste 0 997.9 -1.8 18
2019-06-12 17:00:00 30.5 7 Sur 28 Sur 0 998.4 -2.1 20
2019-06-12 16:00:00 30 6 Noroeste 21 Oeste 0 999 -2.3 24
2019-06-12 15:00:00 28.8 8 Sur 24 Sur 0 999.7 -2.2 24
2019-06-12 14:00:00 28.2 7 Noroeste 22 Oeste 0 1000.5 -1.5 31
2019-06-12 13:00:00 26.5 6 Noroeste 21 Sudoeste 0 1001.3 -0.7 33
2019-06-12 12:00:00 25.4 4 Sudoeste 15 Sudoeste 0 1001.9 0 32
2019-06-12 11:00:00 24.3 4 Oeste 15 Sudoeste 0 1002 0.4 37
2019-06-12 10:00:00 21.3 5 Sudeste 13 Sur 0 1002 0.8 49
2019-06-12 09:00:00 18.3 4 Sudeste 8 Sudeste 0 1001.9 1.3 55
2019-06-12 08:00:00 14.6 3 Sur 8 Sur 0 1001.6 1.3 66
2019-06-12 07:00:00 12.1 2 Oeste 9 Sur 0 1001.2 1 70
2019-06-12 06:00:00 12.5 3 Oeste -- -- 0 1000.6 0.3 74
2019-06-12 05:00:00 13.8 3 Sudoeste 5 Sur 0 1000.3 -0.3 67
2019-06-12 04:00:00 15 3 Sur 8 Sur 0 1000.2 -0.3 61
2019-06-12 03:00:00 16.6 4 Sudoeste -- -- 0 1000.3 0.1 58
2019-06-12 02:00:00 17.4 4 Oeste 11 Sudoeste 0 1000.6 1 47
2019-06-12 01:00:00 20.3 3 Norte 13 Sudeste 0 1000.5 1.9 33
2019-06-12 00:00:00 22.2 10 Sur 18 Este 0 1000.2 1.8 25
2019-06-11 23:00:00 21 6 Nordeste 17 Nordeste 0 999.6 1.7 27
2019-06-11 22:00:00 23.9 9 Oeste 18 Noroeste 0 998.6 0.9 19
2019-06-11 21:00:00 28.4 14 Noroeste 30 Norte 0 998.4 0.5 13
2019-06-11 20:00:00 29.3 19 Norte 35 Noroeste 0 997.9 -0.1 14
2019-06-11 19:00:00 30.6 18 Noroeste 30 Noroeste 0 997.7 -0.6 14
2019-06-11 18:00:00 31.3 14 Noroeste 35 Noroeste 0 997.9 -0.7 15
2019-06-11 17:00:00 30.4 18 Noroeste 35 Noroeste 0 998 -1.4 18
2019-06-11 16:00:00 30.3 19 Oeste 41 Oeste 0 998.3 -2 20
2019-06-11 15:00:00 29.3 24 Sudoeste 37 Sudoeste 0 998.6 -2.4 24
2019-06-11 14:00:00 27.7 14 Sudoeste 30 Oeste 0 999.4 -1.9 26
2019-06-11 13:00:00 25.7 15 Sudoeste 26 Sudoeste 0 1000.3 -1.2 28
2019-06-11 12:00:00 23.9 7 Sur 15 Sudoeste 0 1001 -0.7 33
2019-06-11 11:00:00 21.7 5 Sur 15 Sur 0 1001.3 -0.6 41
2019-06-11 10:00:00 19.2 4 Sur 13 Oeste 0 1001.5 -0.1 52
2019-06-11 09:00:00 16.7 9 Oeste 15 Sudoeste 0 1001.7 -0.2 68
2019-06-11 08:00:00 14.1 6 Sudoeste 9 Sudoeste 0 1001.9 -0.4 81
2019-06-11 07:00:00 12.6 5 Sur 8 Sur 0 1001.6 -1 83
2019-06-11 06:00:00 13.6 4 Oeste 9 Sudoeste 0 1001.9 -1.2 80
2019-06-11 05:00:00 14.3 7 Sudoeste 9 Sudoeste 0 1002.3 -1.5 76
2019-06-11 04:00:00 15.3 5 Sur 9 Sur 0 1002.6 -1.5 75
2019-06-11 03:00:00 16.3 6 Sur 15 Sudoeste 0 1003.1 -1.1 72
2019-06-11 02:00:00 17.4 10 Oeste 21 Oeste 0 1003.8 0.1 66
2019-06-11 01:00:00 18.4 13 Oeste 26 Oeste 0 1004.1 1.3 61
2019-06-11 00:00:00 19.5 19 Sudoeste 42 Oeste 0 1004.2 2.2 56
2019-06-10 23:00:00 21 25 Oeste 41 Oeste 0 1003.7 2.5 51
2019-06-10 22:00:00 23.2 22 Sudoeste 37 Oeste 0 1002.8 1.4 42
2019-06-10 21:00:00 26.4 27 Oeste 46 Oeste 0 1002 0.2 31
2019-06-10 20:00:00 29.9 26 Sudoeste 45 Sudoeste 0 1001.2 -1.1 20
2019-06-10 19:00:00 30.5 23 Sudoeste 37 Sudoeste 0 1001.4 -1.8 18
2019-06-10 18:00:00 30.5 22 Sudoeste 35 Oeste 0 1001.8 -2.3 18
2019-06-10 17:00:00 30.7 14 Oeste 37 Sur 0 1002.3 -2.6 18
2019-06-10 16:00:00 29.4 16 Sudoeste 33 Sudoeste 0 1003.2 -2.3 20
2019-06-10 15:00:00 28.7 17 Sudoeste 28 Sur 0 1004.1 -2 23
2019-06-10 14:00:00 27.7 17 Sudoeste 28 Sudoeste 0 1004.9 -1.9 26
2019-06-10 13:00:00 26.3 12 Sur 24 Sudoeste 0 1005.5 -1.3 29
2019-06-10 12:00:00 24.3 12 Sudoeste 22 Sudoeste 0 1006.1 -0.9 32
2019-06-10 11:00:00 22.4 10 Oeste 17 Oeste 0 1006.8 0.1 39
2019-06-10 10:00:00 20.5 9 Oeste 15 Sudoeste 0 1006.8 0.6 46
2019-06-10 09:00:00 17.5 5 Sudoeste 9 Sudoeste 0 1007 0.6 60
2019-06-10 08:00:00 13.9 6 Sudoeste 9 Sudoeste 0 1006.7 0.1 69
2019-06-10 07:00:00 12.2 6 Oeste 8 Oeste 0 1006.2 -0.8 72
2019-06-10 06:00:00 13.3 3 Sur -- -- 0 1006.4 -0.6 72
2019-06-10 05:00:00 14.3 0 Calma 4 Sur 0 1006.6 -0.3 67
2019-06-10 04:00:00 15.3 0 Calma 8 Sudoeste 0 1007 0 69
2019-06-10 03:00:00 16.1 6 Este 9 Este 0 1007 0.1 64
2019-06-10 02:00:00 17.4 7 Sudoeste 15 Sudoeste 0 1006.9 0.4 59
2019-06-10 01:00:00 18.5 10 Sudoeste 17 Oeste 0 1007 1.6 53
2019-06-10 00:00:00 19.9 11 Oeste 32 Oeste 0 1006.9 2.1 47
2019-06-09 23:00:00 21.6 14 Sudoeste 42 Oeste 0 1006.5 2.6 41
2019-06-09 22:00:00 24 21 Sudoeste 35 Sudoeste 0 1005.4 1.8 32
2019-06-09 21:00:00 26.7 22 Sudoeste 45 Oeste 0 1004.8 0.9 25
2019-06-09 20:00:00 29.8 22 Sudoeste 39 Sudoeste 0 1003.9 -0.7 17
2019-06-09 19:00:00 30.4 20 Oeste 33 Sudoeste 0 1003.6 -1.6 19
2019-06-09 18:00:00 30.7 20 Oeste 33 Sudoeste 0 1003.9 -2 23
2019-06-09 17:00:00 30 19 Sudoeste 33 Oeste 0 1004.6 -2.1 25
2019-06-09 16:00:00 29 18 Sudoeste 32 Oeste 0 1005.2 -1.9 26
2019-06-09 15:00:00 28.2 17 Sudoeste 33 Oeste 0 1005.9 -1.4 27
2019-06-09 14:00:00 27.1 15 Oeste 32 Sudoeste 0 1006.7 -0.9 36
2019-06-09 13:00:00 25.9 17 Oeste 32 Oeste 0 1007.1 -0.7 44
2019-06-09 12:00:00 24.7 19 Oeste 28 Oeste 0 1007.3 -0.4 49
2019-06-09 11:00:00 23.4 17 Sudoeste 28 Sudoeste 0 1007.6 0 51
2019-06-09 10:00:00 22.3 13 Oeste 24 Sudoeste 0 1007.8 0.4 49
2019-06-09 09:00:00 20.1 10 Oeste 15 Oeste 0 1007.7 0.5 57
2019-06-09 08:00:00 18.1 7 Oeste 13 Oeste 0 1007.6 0.7 60
2019-06-09 07:00:00 17.2 10 Oeste 15 Oeste 0 1007.4 0.3 61
2019-06-09 06:00:00 17.2 7 Oeste 13 Sudoeste 0 1007.2 -0.1 58
2019-06-09 05:00:00 19.3 8 Oeste 13 Sudoeste 0 1006.9 -0.4 50
2019-06-09 04:00:00 20.2 8 Oeste 15 Oeste 0 1007.1 0.1 45
2019-06-09 03:00:00 21.5 12 Sudoeste 24 Sudoeste 0 1007.3 0.7 41
2019-06-09 02:00:00 22.6 13 Sudoeste 30 Oeste 0 1007.3 1.3 38
2019-06-09 01:00:00 23.7 12 Sudoeste 28 Sudoeste 0 1007 2 37
2019-06-09 00:00:00 24.6 17 Sudoeste 24 Sudoeste 0 1006.6 2.2 36
2019-06-08 23:00:00 25.2 10 Sudoeste 26 Sudoeste 0 1006 2.1 35
2019-06-08 22:00:00 26.5 21 Sudoeste 37 Sur 0 1005 1.2 30
2019-06-08 21:00:00 27.9 20 Sudoeste 35 Sur 0 1004.4 0.6 27
2019-06-08 20:00:00 29.8 23 Sur 32 Sur 0 1003.9 -0.2 23
2019-06-08 19:00:00 31 17 Sudoeste 30 Sudoeste 0 1003.8 -0.7 18
2019-06-08 18:00:00 31.7 16 Oeste 24 Oeste 0 1003.8 -1.3 17
2019-06-08 17:00:00 31.6 13 Sudoeste 32 Sudoeste 0 1004.1 -1.6 19
2019-06-08 16:00:00 32.2 10 Sudoeste 32 Sudoeste 0 1004.5 -1.8 18
2019-06-08 15:00:00 31.5 12 Oeste 30 Oeste 0 1005.1 -1.6 17
2019-06-08 14:00:00 30.5 8 Sur 28 Oeste 0 1005.7 -1.3 16
2019-06-08 13:00:00 28.7 5 Sudoeste 15 Sudoeste 0 1006.3 -1.2 17
2019-06-08 12:00:00 27 7 Este 15 Sudeste 0 1006.7 -0.6 16
2019-06-08 11:00:00 24.3 7 Este 15 Este 0 1007 0.2 22
2019-06-08 10:00:00 21.4 0 Calma 8 Sudoeste 0 1007.5 1.1 26
2019-06-08 09:00:00 16.9 4 Sur 9 Sudoeste 0 1007.3 0.8 35
2019-06-08 08:00:00 13.1 3 Sudoeste -- -- 0 1006.8 0.4 45
2019-06-08 07:00:00 11 5 Oeste 9 Sudoeste 0 1006.4 0.1 55
2019-06-08 06:00:00 12.1 7 Sudoeste 9 Sudoeste 0 1006.5 -0.1 53
2019-06-08 05:00:00 14.5 5 Sur 9 Sur 0 1006.4 -0.3 36
2019-06-08 04:00:00 17.2 8 Sur 13 Sur 0 1006.3 -0.4 31
2019-06-08 03:00:00 18 4 Sur 21 Norte 0 1006.6 0 29
2019-06-08 02:00:00 20.9 17 Norte 24 Norte 0 1006.7 0.5 23
2019-06-08 01:00:00 20.5 9 Este 28 Norte 0 1006.7 1.1 23
2019-06-08 00:00:00 22.7 19 Norte 35 Norte 0 1006.6 1.5 17
2019-06-07 23:00:00 23.6 24 Norte 37 Norte 0 1006.2 1.2 17
2019-06-07 22:00:00 23.6 10 Norte 17 Norte 0 1005.6 0.8 18
2019-06-07 21:00:00 28 5 Oeste 17 Sudoeste 0 1005.1 0.1 15
2019-06-07 20:00:00 28.9 7 Sudoeste 15 Sudoeste 0 1005 -0.3 14
2019-06-07 19:00:00 28.5 5 Sudeste 18 Sur 0 1004.8 -0.9 15
2019-06-07 18:00:00 28.4 5 Sudoeste 22 Sudoeste 0 1005 -1.1 17
2019-06-07 17:00:00 27.8 8 Sur 21 Sur 0 1005.3 -1.2 17
2019-06-07 16:00:00 26.7 5 Sur 22 Sudoeste 0 1005.7 -0.9 21
2019-06-07 15:00:00 25.4 11 Oeste 22 Oeste 0 1006.1 -0.5 25
2019-06-07 14:00:00 24.7 10 Sudoeste 24 Oeste 0 1006.5 -0.3 27
2019-06-07 13:00:00 23.7 7 Sur 17 Sudeste 0 1006.6 0 30
2019-06-07 12:00:00 22.2 7 Sur 18 Sudeste 0 1006.6 0.5 32
2019-06-07 11:00:00 20.2 8 Sudeste 18 Nordeste 0 1006.8 1.4 41
2019-06-07 10:00:00 18.1 10 Norte 17 Norte 0 1006.6 2.2 46
2019-06-07 09:00:00 17.1 6 Sudeste 22 Oeste 0 1006.1 2.3 55
2019-06-07 08:00:00 16.3 9 Noroeste 24 Noroeste 0 1005.4 1.9 62
2019-06-07 07:00:00 16.8 12 Oeste 22 Oeste 0 1004.4 1.2 78
2019-06-07 06:00:00 17 13 Oeste 22 Oeste 0 1003.8 0.7 75
2019-06-07 05:00:00 16.9 15 Oeste 24 Oeste 0 1003.5 0.4 72
2019-06-07 04:00:00 16.3 13 Oeste 22 Sudoeste 0 1003.2 0.2 73
2019-06-07 03:00:00 16.6 14 Oeste 26 Oeste 0 1003.1 0.6 71
2019-06-07 02:00:00 17.1 15 Sudoeste 30 Sudoeste 0 1003.1 1.1 68
2019-06-07 01:00:00 18.1 15 Oeste 32 Sudoeste 0 1003 2.2 58
2019-06-07 00:00:00 18.8 19 Sudoeste 35 Sudoeste 0 1002.5 2.5 51
2019-06-06 23:00:00 20.1 17 Sudoeste 30 Sudoeste 0 1002 2.5 42
2019-06-06 22:00:00 21.7 19 Sudoeste 39 Sudoeste 0 1000.8 1.5 29
2019-06-06 21:00:00 24.7 23 Sudoeste 37 Sudoeste 0 1000 0.4 14
2019-06-06 20:00:00 26.6 23 Oeste 41 Oeste 0 999.5 -0.5 12
2019-06-06 19:00:00 27.5 28 Oeste 42 Oeste 0 999.3 -1.5 15
2019-06-06 18:00:00 28.3 26 Oeste 39 Oeste 0 999.6 -2 16
2019-06-06 17:00:00 28.5 22 Oeste 41 Oeste 0 1000 -2.1 15
2019-06-06 16:00:00 27.8 13 Oeste 33 Oeste 0 1000.8 -1.8 18
2019-06-06 15:00:00 27 15 Oeste 32 Oeste 0 1001.6 -1.6 19
2019-06-06 14:00:00 26.2 16 Oeste 30 Oeste 0 1002.1 -1.5 21
2019-06-06 13:00:00 25 9 Oeste 22 Sudoeste 0 1002.6 -1.4 24
2019-06-06 12:00:00 23.4 6 Sur 13 Sudoeste 0 1003.2 -1.1 26
2019-06-06 11:00:00 21.9 5 Sur 11 Sur 0 1003.6 -1 31
2019-06-06 10:00:00 19.8 4 Sudeste 9 Sudeste 0 1004 -0.4 37
2019-06-06 09:00:00 16.4 3 Sudoeste 5 Sudoeste 0 1004.3 0.2 58
2019-06-06 08:00:00 12.9 5 Oeste 8 Sudoeste 0 1004.6 0.6 69
2019-06-06 07:00:00 11 5 Sudoeste 9 Sur 0 1004.4 0.5 76
2019-06-06 06:00:00 11.8 5 Sur 8 Sur 0 1004.1 0.1 71
2019-06-06 05:00:00 13.7 3 Sudoeste 9 Norte 0 1004 -0.1 57
2019-06-06 04:00:00 14.1 6 Oeste 9 Sudoeste 0 1003.9 0 60
2019-06-06 03:00:00 14.8 7 Oeste 13 Oeste 0 1004 0.2 50
2019-06-06 02:00:00 15.4 6 Sudoeste 13 Sur 0 1004.1 0.6 50
2019-06-06 01:00:00 16.1 9 Sur 15 Oeste 0 1003.9 1 40
2019-06-06 00:00:00 17.4 5 Sur 9 Noroeste 0 1003.8 1.1 41
2019-06-05 23:00:00 18.6 6 Oeste 9 Oeste 0 1003.5 1.1 37
2019-06-05 22:00:00 21.6 9 Oeste 17 Oeste 0 1002.9 0.5 24
2019-06-05 21:00:00 24.4 15 Oeste 30 Noroeste 0 1002.7 0.1 20
2019-06-05 20:00:00 26 17 Noroeste 32 Oeste 0 1002.4 -0.3 19
2019-06-05 19:00:00 26.8 13 Oeste 30 Oeste 0 1002.4 -0.6 17
2019-06-05 18:00:00 26.1 15 Sudoeste 30 Noroeste 0 1002.6 -1.1 19
2019-06-05 17:00:00 26.6 14 Noroeste 35 Noroeste 0 1002.7 -1.7 17
2019-06-05 16:00:00 26.9 17 Oeste 30 Oeste 0 1003 -1.8 19
2019-06-05 15:00:00 25.4 13 Sudoeste 33 Oeste -- 1003.7 -1.5 22
2019-06-05 14:00:00 24.2 12 Oeste 32 Oeste 0 1004.4 -0.9 24
2019-06-05 13:00:00 23.5 6 Oeste 26 Sur 0 1004.8 -0.5 29
2019-06-05 12:00:00 21.4 11 Sudoeste 26 Sudoeste 0 1005.2 0.2 37
2019-06-05 11:00:00 19.9 9 Oeste 24 Oeste 0 1005.3 0.9 39
2019-06-05 10:00:00 18.6 15 Oeste 24 Oeste 0 1005.3 1.7 44
2019-06-05 09:00:00 17.1 14 Oeste 24 Oeste 0 1005 2.1 52
2019-06-05 08:00:00 15.5 10 Oeste 17 Oeste 0 1004.4 2.1 55
2019-06-05 07:00:00 14.9 8 Sudoeste 18 Oeste 0 1003.6 1.7 52
2019-06-05 06:00:00 16.6 12 Oeste 22 Oeste 0 1002.9 1.3 43
2019-06-05 05:00:00 17.8 11 Oeste 24 Oeste 0 1002.3 1 42
2019-06-05 04:00:00 19.2 18 Oeste 30 Oeste 0 1001.9 1.1 46
2019-06-05 03:00:00 20.8 23 Oeste 33 Oeste 0 1001.6 1.1 50
2019-06-05 02:00:00 21 13 Oeste 22 Oeste 0 1001.3 1.5 50
2019-06-05 01:00:00 21.8 8 Oeste 28 Oeste 0 1000.8 2 52
2019-06-05 00:00:00 22 18 Sudoeste 37 Oeste 0 1000.5 2.4 61
2019-06-04 23:00:00 23 28 Sudoeste 45 Oeste 0 999.8 1.9 57
2019-06-04 22:00:00 24.9 25 Sudoeste 42 Sudoeste 0 998.8 1 49
2019-06-04 21:00:00 27.6 24 Sudoeste 42 Sudoeste 0 998.1 -0.1 39
2019-06-04 20:00:00 30 29 Sudoeste 46 Sudoeste 0 997.9 -1 32
2019-06-04 19:00:00 31.8 28 Sudoeste 45 Oeste 0 997.8 -1.7 27
2019-06-04 18:00:00 32.5 26 Sudoeste 41 Oeste 0 998.2 -2.4 24
2019-06-04 17:00:00 32.5 24 Oeste 37 Sudoeste 0 998.9 -2.7 23
2019-06-04 16:00:00 32.3 21 Oeste 37 Sudoeste 0 999.5 -2.9 24
2019-06-04 15:00:00 31.1 17 Sudoeste 35 Sudoeste 0 1000.6 -2.3 24
2019-06-04 14:00:00 30 19 Sudoeste 35 Oeste 0 1001.6 -1.5 26
2019-06-04 13:00:00 28.4 15 Sudoeste 28 Oeste 0 1002.4 -0.8 29
2019-06-04 12:00:00 26.4 13 Sudoeste 24 Oeste 0 1002.9 -0.1 34
2019-06-04 11:00:00 24.2 11 Oeste 21 Oeste 0 1003.1 0.5 38
2019-06-04 10:00:00 22.7 8 Oeste 13 Oeste 0 1003.2 0.6 39
2019-06-04 09:00:00 20.4 4 Sur 8 Sudoeste 0 1003 0.6 43
2019-06-04 08:00:00 16 4 Sur 9 Sudoeste 0 1002.6 0 57
2019-06-04 07:00:00 14.5 5 Sudoeste 8 Sudoeste 0 1002.6 -0.6 63
2019-06-04 06:00:00 15.5 5 Sudoeste 9 Sur 0 1002.4 -1.2 58
2019-06-04 05:00:00 16.5 6 Sur -- -- 0 1002.6 -1.1 56
2019-06-04 04:00:00 18.5 7 Sur 9 Sur 0 1003.2 -0.4 50
2019-06-04 03:00:00 20.4 9 Sudoeste 18 Sudoeste 0 1003.6 0.3 41
2019-06-04 02:00:00 21.7 12 Sudoeste 22 Sudoeste 0 1003.7 1 37
2019-06-04 01:00:00 24.1 13 Sudoeste 24 Sudoeste 0 1003.6 1.8 28
2019-06-04 00:00:00 25.1 13 Sudoeste 21 Oeste 0 1003.3 1.8 29
2019-06-03 23:00:00 27.6 14 Oeste 28 Oeste 0 1002.7 1.2 24
2019-06-03 22:00:00 28.7 13 Sudoeste 24 Oeste 0 1001.8 0.4 19
2019-06-03 21:00:00 33.7 14 Oeste 30 Oeste 0 1001.5 -0.4 12
2019-06-03 20:00:00 35.5 19 Oeste 30 Oeste 0 1001.5 -0.9 12
2019-06-03 19:00:00 36.7 16 Oeste 30 Oeste 0 1001.4 -1.7 10
2019-06-03 18:00:00 37.2 13 Sudoeste 26 Sudoeste 0 1001.9 -2.1 11
2019-06-03 17:00:00 37.1 15 Oeste 26 Oeste 0 1002.4 -2.4 11
2019-06-03 16:00:00 35.9 11 Oeste 22 Oeste 0 1003.1 -2.5 13
2019-06-03 15:00:00 34.8 12 Oeste 22 Oeste 0 1004 -2.1 14
2019-06-03 14:00:00 32.9 7 Oeste 13 Sudoeste 0 1004.8 -1.5 15
2019-06-03 13:00:00 31.3 7 Oeste 13 Noroeste 0 1005.6 -1.1 17
2019-06-03 12:00:00 29.3 6 Este 13 Sudeste 0 1006.1 -0.6 22
2019-06-03 11:00:00 26.9 8 Este 13 Este 0 1006.3 -0.2 27
2019-06-03 10:00:00 24.7 5 Este 11 Este 0 1006.7 0.4 34
2019-06-03 09:00:00 22.3 3 Este 5 Nordeste 0 1006.7 0.5 41
2019-06-03 08:00:00 18.1 3 Oeste 5 Noroeste 0 1006.5 0.3 53
2019-06-03 07:00:00 17.1 4 Sur -- -- 0 1006.3 0 59
2019-06-03 06:00:00 17.5 4 Sudoeste 8 Oeste 0 1006.2 -0.2 54
2019-06-03 05:00:00 18.4 4 Sudoeste 11 Sudoeste 0 1006.2 -0.3 49
2019-06-03 04:00:00 20 9 Sudoeste -- -- 0 1006.3 0.1 43
2019-06-03 03:00:00 21.5 9 Sudoeste 13 Sudoeste 0 1006.4 0.6 36
2019-06-03 02:00:00 22.8 6 Oeste 15 Oeste 0 1006.5 1.8 31
2019-06-03 01:00:00 24.6 10 Oeste 18 Sudoeste 0 1006.2 2.6 24
2019-06-03 00:00:00 25.3 10 Oeste 18 Oeste 0 1005.8 2.7 21
2019-06-02 23:00:00 27.4 8 Oeste 21 Sudoeste 0 1004.7 1.9 17
2019-06-02 22:00:00 30 13 Sudoeste 21 Sudoeste 0 1003.6 0.8 14
2019-06-02 21:00:00 33.8 13 Sudoeste 22 Sudoeste 0 1003.1 -0.1 12
2019-06-02 20:00:00 36.1 16 Sudoeste 28 Sur 0 1002.8 -0.9 12
2019-06-02 19:00:00 37 9 Sudoeste 17 Sudoeste 0 1002.8 -1.7 12
2019-06-02 18:00:00 37.1 6 Sur 17 Sur 0 1003.2 -2 12
2019-06-02 17:00:00 36.1 8 Sudoeste 21 Oeste 0 1003.7 -2.7 12
2019-06-02 16:00:00 34.8 8 Sudoeste 21 Oeste 0 1004.5 -2.5 13
2019-06-02 15:00:00 34.3 5 Sur 15 Sudeste 0 1005.2 -2.3 14
2019-06-02 14:00:00 31.8 6 Nordeste 18 Sur 0 1006.4 -1.5 17
2019-06-02 13:00:00 30.4 6 Sudeste 15 Sudeste 0 1007 -1.2 20
2019-06-02 12:00:00 28.7 4 Sur 17 Sudeste 0 1007.5 -0.6 23
2019-06-02 11:00:00 26.3 6 Este 13 Este 0 1007.9 0 27
2019-06-02 10:00:00 24.1 7 Este 13 Este 0 1008.2 0.6 32
2019-06-02 09:00:00 21.1 5 Sudeste 8 Sudeste 0 1008.1 0.7 43
2019-06-02 08:00:00 17.7 2 Oeste 8 Este 0 1007.9 0.6 50
2019-06-02 07:00:00 14.9 0 Calma 5 Este 0 1007.6 0.3 60
2019-06-02 06:00:00 15.6 3 Nordeste 5 Norte 0 1007.4 -0.1 53
2019-06-02 05:00:00 16.2 3 Sudeste 9 Sudeste 0 1007.3 -0.3 50
2019-06-02 04:00:00 17 5 Sudoeste 11 Sudoeste 0 1007.3 -0.5 48
2019-06-02 03:00:00 17.7 5 Sur 9 Sudoeste 0 1007.5 0.3 48
2019-06-02 02:00:00 19 6 Sudoeste 8 Oeste 0 1007.6 1.2 39
2019-06-02 01:00:00 22 5 Sur 18 Sudoeste 0 1007.8 2.5 30
2019-06-02 00:00:00 23.3 4 Oeste 21 Sudoeste 0 1007.2 2.7 27
2019-06-01 23:00:00 25.3 11 Sudoeste 28 Sudoeste 0 1006.4 2.6 23
2019-06-01 22:00:00 27.1 15 Sudoeste 26 Sudoeste 0 1005.3 1.8 22
2019-06-01 21:00:00 30.6 12 Oeste 30 Sudoeste 0 1004.5 0.9 18
2019-06-01 20:00:00 33 19 Sudoeste 39 Sudoeste 0 1003.8 -0.5 17
2019-06-01 19:00:00 35.4 28 Sudoeste 37 Sur 0 1003.5 -1.9 14
2019-06-01 18:00:00 36.6 9 Sur 21 Sur 0 1003.6 -2.7 13
2019-06-01 17:00:00 35.6 12 Sudoeste 22 Oeste 0 1004.3 -2.9 15
2019-06-01 16:00:00 34.8 7 Sudoeste 18 Sur 0 1005.4 -2.7 16
2019-06-01 15:00:00 33.8 8 Sur 21 Sudoeste 0 1006.3 -2.2 18
2019-06-01 14:00:00 32.3 8 Sudeste 17 Sudeste 0 1007.2 -1.8 20
2019-06-01 13:00:00 30.9 9 Este 18 Este 0 1008.1 -1 21
2019-06-01 12:00:00 28.4 12 Este 18 Este 0 1008.5 -0.6 28
2019-06-01 11:00:00 25.8 4 Este 9 Este 0 1009 0.1 34
2019-06-01 10:00:00 23.1 3 Sudoeste 9 Este 0 1009.1 0.7 42
2019-06-01 09:00:00 19.6 4 Sur 8 Sudoeste 0 1009.1 0.9 49
2019-06-01 08:00:00 16 4 Oeste -- -- 0 1008.9 0.9 60
2019-06-01 07:00:00 14.2 4 Sudoeste 5 Sudoeste 0 1008.4 0.3 68
2019-06-01 06:00:00 15.7 3 Sur -- -- 0 1008.2 0.1 63
2019-06-01 05:00:00 16.1 4 Sudoeste -- -- 0 1008 -0.4 60
2019-06-01 04:00:00 17.5 -- -- -- -- 0 1008.1 -0.6 51
2019-06-01 03:00:00 18.3 6 Oeste 9 Oeste 0 1008.1 -0.3 47
2019-06-01 02:00:00 19.4 4 Sudoeste 13 Sur 0 1008.4 0.8 47
2019-06-01 01:00:00 20.4 9 Sur 15 Sur 0 1008.7 2 42
2019-06-01 00:00:00 22 8 Sudoeste 13 Oeste 0 1008.4 2.4 38
2019-05-31 23:00:00 24.6 9 Sudoeste 21 Oeste 0 1007.6 2.6 30
2019-05-31 22:00:00 26.7 10 Oeste 18 Oeste 0 1006.7 1.8 27
2019-05-31 21:00:00 30.3 13 Sudoeste 33 Sudoeste 0 1006 0.6 21
2019-05-31 20:00:00 33.5 22 Sudoeste 32 Sudoeste 0 1005 -0.8 17
2019-05-31 19:00:00 36.1 16 Este 33 Este 0 1004.9 -1.7 9
2019-05-31 18:00:00 36.2 15 Nordeste 30 Este 0 1005.4 -1.9 9
2019-05-31 17:00:00 35.9 17 Este -- -- -- 1005.8 -2.4 10
2019-05-31 16:00:00 35.3 15 Nordeste 33 Nordeste 0 1006.6 -2.3 12
2019-05-31 15:00:00 34.3 13 Nordeste 24 Nordeste 0 1007.3 -2 14
2019-05-31 14:00:00 32.6 10 Este 26 Nordeste 0 1008.2 -1.6 17
2019-05-31 13:00:00 30.8 12 Este 24 Este 0 1008.9 -1.2 20
2019-05-31 12:00:00 29 14 Este 22 Este 0 1009.3 -0.9 24
2019-05-31 11:00:00 26.3 15 Este 22 Este 0 1009.8 -0.5 31
2019-05-31 10:00:00 23 6 Sudeste 9 Sudeste 0 1010.1 0.3 40
2019-05-31 09:00:00 19.9 3 Sudeste 8 Este 0 1010.2 0.5 47
2019-05-31 08:00:00 15.2 3 Sudoeste 5 Sudoeste 0 1010.3 0.6 60
2019-05-31 07:00:00 13.6 0 Calma 8 Sudeste 0 1009.8 -0.1 62
2019-05-31 06:00:00 14.2 4 Sur 8 Sudoeste 0 1009.7 -0.5 62
2019-05-31 05:00:00 14.8 4 Este 8 Oeste 0 1009.7 -1 59
2019-05-31 04:00:00 16 5 Oeste 11 Sudoeste 0 1009.9 -1.2 55
2019-05-31 03:00:00 17.6 4 Sudoeste 9 Sur 0 1010.2 -0.8 53
2019-05-31 02:00:00 20.1 4 Sudoeste 17 Sudoeste 0 1010.7 0.8 41
2019-05-31 01:00:00 21.2 11 Sudoeste 21 Sudoeste 0 1011.1 2.3 39
2019-05-31 00:00:00 21.8 11 Oeste 18 Oeste 0 1011 3.2 43
2019-05-30 23:00:00 23.2 13 Oeste 24 Sudoeste 0 1009.9 3 39
2019-05-30 22:00:00 25 13 Sudoeste 26 Oeste 0 1008.8 2.4 33
2019-05-30 21:00:00 28.4 19 Sur 30 Sudoeste 0 1007.8 1 28
2019-05-30 20:00:00 31.3 19 Sudoeste 37 Sudoeste 0 1006.9 -0.6 24
2019-05-30 19:00:00 35 9 Nordeste 32 Este 0 1006.4 -1.7 12
2019-05-30 18:00:00 35 10 Este 30 Sudeste 0 1006.8 -2.1 12
2019-05-30 17:00:00 34.4 10 Este 30 Nordeste 0 1007.5 -2.1 13
2019-05-30 16:00:00 33.5 14 Este 26 Este 0 1008.1 -2.3 15
2019-05-30 15:00:00 31.9 9 Este 24 Este 0 1008.9 -1.9 19
2019-05-30 14:00:00 30.6 10 Nordeste 24 Este 0 1009.6 -1.6 22
2019-05-30 13:00:00 28.9 8 Este 17 Norte 0 1010.4 -0.8 28
2019-05-30 12:00:00 27.1 6 Sudeste 21 Este 0 1010.8 -0.3 32
2019-05-30 11:00:00 25.3 5 Este 13 Oeste 0 1011.2 0.6 41
2019-05-30 10:00:00 22.8 2 Oeste 13 Sudoeste 0 1011.2 -- 49
2019-05-30 09:00:00 20.4 6 Sudoeste 9 Oeste 0 1011.1 1.5 58
2019-05-30 08:00:00 16.1 6 Sudoeste -- -- -- 1010.6 1.4 63
2019-05-30 07:00:00 -- -- -- 9 Sudoeste 0 -- -- --
2019-05-30 06:00:00 16.2 6 Sudoeste 13 Oeste 0 1009.6 0.8 63
2019-05-30 05:00:00 17.5 12 Oeste 18 Oeste 0 1009.2 0.8 56
2019-05-30 04:00:00 18.7 10 Sudoeste 17 Oeste 0 1009.1 0.8 48
2019-05-30 03:00:00 19.5 9 Noroeste 17 Sudeste 0 1008.8 0.8 36
2019-05-30 02:00:00 19.9 9 Este 18 Sudeste 0 1008.4 1.3 34
2019-05-30 01:00:00 22 10 Este 17 Este 0 1008.3 2.4 28
2019-05-30 00:00:00 22.8 4 Sudeste 11 Este 0 1008 2.7 26
2019-05-29 23:00:00 25.4 4 Nordeste 13 Nordeste 0 1007.1 2.4 21
2019-05-29 22:00:00 27.8 10 Nordeste 24 Este 0 1005.9 1.3 15
2019-05-29 21:00:00 31.7 16 Este 30 Este 0 1005.3 0.4 13
2019-05-29 20:00:00 33.2 19 Este 32 Este 0 1004.7 -0.6 12
2019-05-29 19:00:00 34 20 Este 28 Este 0 1004.6 -1.3 12
2019-05-29 18:00:00 34.4 16 Este 32 Este 0 1004.9 -1.4 12
2019-05-29 17:00:00 34 16 Este 30 Este 0 1005.3 -1.8 13
2019-05-29 16:00:00 33.4 16 Este 30 Este 0 1005.9 -1.6 13
2019-05-29 15:00:00 32.5 15 Este 28 Este 0 1006.3 -1.3 14
2019-05-29 14:00:00 31.3 15 Este 33 Este 0 1007.1 -0.5 14
2019-05-29 13:00:00 30.5 24 Este 39 Este 0 1007.5 -0.1 16
2019-05-29 12:00:00 28.8 26 Este 41 Nordeste 0 1007.6 0.4 18
2019-05-29 11:00:00 27.4 27 Este 42 Este 0 1007.6 0.9 20
2019-05-29 10:00:00 25.5 30 Este 42 Este 0 1007.6 2 22
2019-05-29 09:00:00 23.5 15 Este 22 Este 0 1007.2 2.2 27
2019-05-29 08:00:00 20.7 11 Este 17 Este 0 1006.7 2.5 32
2019-05-29 07:00:00 19 10 Este 17 Este 0 1005.6 1.8 35
2019-05-29 06:00:00 21.2 13 Sudeste 28 Este 0 1005 1.4 30
2019-05-29 05:00:00 23.8 16 Nordeste 30 Nordeste 0 1004.2 0.8 24
2019-05-29 04:00:00 21.7 15 Este 24 Este 0 1003.8 0.9 32
2019-05-29 03:00:00 21.2 12 Este 15 Este 0 1003.6 1.6 45
2019-05-29 02:00:00 23.1 5 Nordeste 18 Sudeste 0 1003.4 2 40
2019-05-29 01:00:00 24.7 3 Este 21 Oeste 0 1002.9 2.4 35
2019-05-29 00:00:00 26.5 15 Oeste 26 Sudoeste 0 1002 2.5 30
2019-05-28 23:00:00 27.7 10 Sudoeste 28 Oeste 0 1001.4 2.5 31
2019-05-28 22:00:00 30.5 18 Oeste 35 Oeste 0 1000.5 1.7 28
2019-05-28 21:00:00 34.3 9 Oeste 15 Oeste 0 999.5 0.6 19
2019-05-28 20:00:00 36.1 11 Oeste 17 Oeste 0 998.9 -0.3 16
2019-05-28 19:00:00 36.6 10 Sudoeste 22 Oeste 0 998.8 -0.9 16
2019-05-28 18:00:00 36.4 10 Sudoeste 21 Sur 0 998.9 -1.1 17
2019-05-28 17:00:00 36 8 Sur 21 Sudoeste 0 999.2 -1.3 16
2019-05-28 16:00:00 35.4 10 Sudeste 26 Sudoeste 0 999.7 -1.2 17
2019-05-28 15:00:00 35 9 Sur 18 Sudoeste 0 1000 -1 17
2019-05-28 14:00:00 33.7 8 Este 18 Este 0 1000.5 -0.6 20
2019-05-28 13:00:00 31.9 8 Este 18 Sudeste 0 1000.9 -0.4 24
2019-05-28 12:00:00 29.9 9 Este 18 Este 0 1001 0 26
2019-05-28 11:00:00 27 6 Nordeste 18 Este 0 1001.1 0.5 37
2019-05-28 10:00:00 25 4 Este 9 Este 0 1001.3 1 44
2019-05-28 09:00:00 21.8 2 Sudeste 8 Sur 0 1001 1 56
2019-05-28 08:00:00 18.2 0 Calma 5 Sur 0 1000.6 0.7 67
2019-05-28 07:00:00 16.6 0 Calma 4 Sudoeste 0 1000.3 0.6 72
2019-05-28 06:00:00 17.5 0 Calma 4 Norte 0 1000 0 71
2019-05-28 05:00:00 18.4 0 Calma 11 Oeste 0 999.9 -0.1 65
2019-05-28 04:00:00 20 7 Sudoeste 17 Sudoeste 0 999.7 -0.6 60
2019-05-28 03:00:00 21 9 Sudoeste 18 Oeste 0 1000 0.1 54
2019-05-28 02:00:00 22.3 10 Sudoeste 18 Sudoeste 0 1000 0.5 47
2019-05-28 01:00:00 24.2 14 Oeste 24 Oeste 0 1000.3 1.8 39
2019-05-28 00:00:00 25.6 12 Sudoeste 21 Sudoeste 0 999.9 1.7 32
2019-05-27 23:00:00 28.1 14 Oeste 32 Oeste 0 999.5 2 27
2019-05-27 22:00:00 30.4 21 Oeste 35 Oeste 0 998.5 0.9 26
2019-05-27 21:00:00 32 17 Oeste 26 Oeste 0 998.2 0.2 21
2019-05-27 20:00:00 33.1 13 Oeste 28 Oeste 0 997.5 -1 18
2019-05-27 19:00:00 34.4 14 Oeste 30 Oeste 0 997.6 -1.7 16
2019-05-27 18:00:00 35.5 19 Sudoeste 35 Sudoeste 0 998 -2.2 15
2019-05-27 17:00:00 35 15 Sudoeste 37 Sudoeste 0 998.5 -2.8 15
2019-05-27 16:00:00 34.9 13 Sur 26 Sur 0 999.3 -3.1 15
2019-05-27 15:00:00 33.9 13 Sur 24 Sur 0 1000.2 -2.8 16
2019-05-27 14:00:00 32 9 Sudoeste 18 Sudoeste 0 1001.3 -2.1 21
2019-05-27 13:00:00 29.6 5 Sur 15 Sur 0 1002.4 -1.3 25
2019-05-27 12:00:00 26.9 5 Este 13 Nordeste 0 1003 -0.5 32
2019-05-27 11:00:00 24.7 6 Nordeste 13 Nordeste 0 1003.4 -0.2 37
2019-05-27 10:00:00 22.5 7 Este 11 Este 0 1003.7 0.7 44
2019-05-27 09:00:00 20 5 Este 11 Este 0 1003.5 0.7 53
2019-05-27 08:00:00 15.6 0 Calma 5 Sudoeste 0 1003.6 0.7 64
2019-05-27 07:00:00 14.6 0 Calma 8 Este 0 1003 -0.2 70
2019-05-27 06:00:00 14.9 2 Este 8 Sudoeste 0 1002.8 -0.8 69
2019-05-27 05:00:00 16.6 5 Sudoeste -- -- 0 1002.9 -0.8 65
2019-05-27 04:00:00 16.9 7 Sudoeste 9 Sudoeste 0 1003.2 -0.6 63
2019-05-27 03:00:00 18 8 Sudoeste 13 Sudoeste 0 1003.6 0.6 60
2019-05-27 02:00:00 19.8 9 Sudoeste 15 Sudoeste 0 1003.7 1 54
2019-05-27 01:00:00 21.1 8 Sur 22 Sur 0 1003.8 1.8 46
2019-05-27 00:00:00 20.5 4 Sudoeste 8 Sudoeste 0 1003 1.4 42